createdAt,value
2023-04-12T00:02:06.740Z,78.18
2023-04-12T00:04:40.570Z,76.05
2023-04-12T00:07:15.937Z,76.70
2023-04-12T00:09:49.373Z,72.25
2023-04-12T00:12:24.217Z,72.00
2023-04-12T00:14:56.711Z,72.07
2023-04-12T00:17:30.518Z,71.72
2023-04-12T00:20:04.112Z,73.80
2023-04-12T00:22:37.816Z,78.60
2023-04-12T00:25:13.609Z,82.15
2023-04-12T00:27:46.835Z,80.60
2023-04-12T00:30:20.544Z,79.95
2023-04-12T00:32:56.096Z,79.78
2023-04-12T00:35:30.992Z,78.72
2023-04-12T00:38:07.409Z,81.82
2023-04-12T00:40:47.747Z,80.50
2023-04-12T00:43:23.017Z,83.13
2023-04-12T00:46:00.264Z,83.50
2023-04-12T00:48:34.842Z,80.05
2023-04-12T00:51:12.771Z,79.18
2023-04-12T00:53:46.701Z,76.63
2023-04-12T00:56:22.395Z,75.28
2023-04-12T00:58:56.118Z,77.97
2023-04-12T01:01:32.090Z,78.38
2023-04-12T01:04:08.201Z,74.35
2023-04-12T01:07:08.928Z,77.85
2023-04-12T01:10:03.089Z,80.82
2023-04-12T01:13:05.828Z,84.15
2023-04-12T01:16:04.390Z,81.07
2023-04-12T01:18:49.980Z,77.05
2023-04-12T01:22:10.021Z,77.25
2023-04-12T01:25:00.169Z,81.60
2023-04-12T01:27:46.129Z,82.45
2023-04-12T01:30:26.034Z,81.38
2023-04-12T01:33:01.892Z,81.95
2023-04-12T01:35:37.104Z,80.60
2023-04-12T01:38:11.097Z,82.63
2023-04-12T01:40:44.862Z,83.15
2023-04-12T01:43:19.196Z,86.18
2023-04-12T01:45:53.827Z,87.38
2023-04-12T01:48:27.722Z,87.65
2023-04-12T01:51:22.701Z,83.85
2023-04-12T01:54:22.588Z,83.38
2023-04-12T01:57:07.893Z,83.95
2023-04-12T01:59:49.822Z,87.20
2023-04-12T02:02:24.664Z,83.43
2023-04-12T02:05:00.978Z,88.30
2023-04-12T02:07:33.231Z,88.20
2023-04-12T02:10:06.718Z,90.05
2023-04-12T02:12:40.548Z,90.97
2023-04-12T02:15:17.483Z,87.97
2023-04-12T02:17:51.120Z,87.60
2023-04-12T02:20:28.580Z,89.60
2023-04-12T02:23:03.756Z,88.97
2023-04-12T02:25:39.564Z,90.20
2023-04-12T02:28:13.949Z,89.32
2023-04-12T02:30:48.167Z,86.53
2023-04-12T02:33:25.000Z,85.72
2023-04-12T02:36:01.804Z,83.95
2023-04-12T02:38:36.516Z,79.07
2023-04-12T02:41:11.568Z,86.80
2023-04-12T02:43:46.336Z,79.13
2023-04-12T02:46:28.396Z,73.95
2023-04-12T02:49:03.748Z,72.90
2023-04-12T02:51:45.260Z,71.57
2023-04-12T02:54:26.235Z,69.47
2023-04-12T02:57:03.052Z,75.03
2023-04-12T02:59:47.398Z,70.15
2023-04-12T03:02:25.108Z,70.05
2023-04-12T03:05:04.905Z,65.63
2023-04-12T03:07:41.229Z,63.00
2023-04-12T03:10:15.377Z,59.17
2023-04-12T03:12:49.990Z,49.30
2023-04-12T03:15:24.702Z,46.08
2023-04-12T03:17:55.427Z,42.20
2023-04-12T03:20:30.113Z,36.17
2023-04-12T03:23:08.804Z,36.25
2023-04-12T03:25:42.599Z,37.42
2023-04-12T03:28:31.887Z,34.03
2023-04-12T03:31:04.277Z,34.30
2023-04-12T03:33:52.518Z,33.17
2023-04-12T03:36:25.860Z,71.10
2023-04-12T03:39:00.659Z,28.42
2023-04-12T03:41:33.307Z,27.40
2023-04-12T03:44:06.095Z,30.42
2023-04-12T03:46:37.659Z,29.08
2023-04-12T03:49:11.929Z,29.05
2023-04-12T03:51:44.071Z,28.33
2023-04-12T03:54:14.313Z,27.55
2023-04-12T03:56:58.078Z,23.83
2023-04-12T03:59:38.401Z,25.48
2023-04-12T04:02:08.434Z,21.45
2023-04-12T04:04:44.455Z,19.38
2023-04-12T04:07:17.169Z,16.63
2023-04-12T04:09:48.423Z,24.10
2023-04-12T04:12:17.922Z,18.40
2023-04-12T04:14:51.376Z,14.35
2023-04-12T04:17:32.986Z,14.40
2023-04-12T04:20:02.822Z,18.80
2023-04-12T04:22:35.617Z,16.25
2023-04-12T04:25:07.392Z,24.58
2023-04-12T04:27:40.404Z,25.77
2023-04-12T04:30:11.785Z,28.38
2023-04-12T04:32:46.396Z,32.72
2023-04-12T04:35:18.390Z,32.93
2023-04-12T04:38:02.948Z,35.72
2023-04-12T04:40:34.417Z,34.50
2023-04-12T04:43:05.852Z,36.70
2023-04-12T04:45:42.427Z,30.45
2023-04-12T04:48:12.957Z,28.80
2023-04-12T04:50:42.448Z,33.45
2023-04-12T04:53:12.591Z,38.70
2023-04-12T04:55:42.414Z,39.03
2023-04-12T04:58:14.724Z,42.65
2023-04-12T05:00:49.969Z,34.47
2023-04-12T05:03:20.483Z,38.72
2023-04-12T05:05:52.923Z,44.78
2023-04-12T05:08:22.515Z,47.53
2023-04-12T05:11:47.260Z,37.17
2023-04-12T05:14:16.842Z,20.25
2023-04-12T05:16:46.740Z,24.33
2023-04-12T05:19:16.135Z,28.15
2023-04-12T05:21:46.089Z,35.95
2023-04-12T05:24:15.954Z,34.38
2023-04-12T05:26:49.685Z,34.72
2023-04-12T05:29:20.206Z,30.15
2023-04-12T05:31:50.096Z,28.25
2023-04-12T05:34:22.579Z,22.42
2023-04-12T05:36:55.600Z,23.27
2023-04-12T05:39:25.746Z,21.27
2023-04-12T05:41:55.437Z,20.17
2023-04-12T05:44:27.555Z,17.13
2023-04-12T05:46:56.755Z,19.45
2023-04-12T05:49:29.959Z,19.02
2023-04-12T05:52:00.578Z,16.70
2023-04-12T05:54:29.648Z,18.50
2023-04-12T05:56:58.986Z,16.75
2023-04-12T05:59:28.183Z,15.60
2023-04-12T06:01:57.903Z,13.43
2023-04-12T06:04:42.068Z,11.97
2023-04-12T06:07:20.246Z,12.32
2023-04-12T06:09:50.942Z,19.98
2023-04-12T06:12:21.440Z,14.82
2023-04-12T06:14:50.781Z,17.85
2023-04-12T06:17:20.247Z,15.88
2023-04-12T06:19:49.650Z,17.27
2023-04-12T06:22:18.995Z,13.90
2023-04-12T06:24:48.778Z,14.52
2023-04-12T06:27:18.539Z,14.27
2023-04-12T06:29:47.901Z,15.68
2023-04-12T06:33:32.726Z,17.30
2023-04-12T06:36:02.312Z,15.20
2023-04-12T06:38:32.678Z,16.65
2023-04-12T06:41:03.786Z,16.15
2023-04-12T06:43:34.422Z,15.23
2023-04-12T06:46:06.013Z,17.95
2023-04-12T06:48:36.584Z,18.55
2023-04-12T06:51:07.577Z,18.73
2023-04-12T06:53:40.637Z,16.05
2023-04-12T06:56:11.751Z,18.90
2023-04-12T06:58:43.476Z,17.92
2023-04-12T07:01:31.598Z,16.63
2023-04-12T07:04:03.088Z,17.63
2023-04-12T07:06:34.712Z,17.92
2023-04-12T07:09:06.780Z,17.95
2023-04-12T07:11:38.355Z,17.98
2023-04-12T07:14:08.944Z,19.73
2023-04-12T07:16:40.401Z,20.95
2023-04-12T07:19:22.613Z,15.63
2023-04-12T07:21:52.525Z,18.52
2023-04-12T07:24:22.824Z,19.75
2023-04-12T07:26:56.283Z,18.75
2023-04-12T07:29:26.065Z,19.50
2023-04-12T07:31:55.605Z,18.63
2023-04-12T07:34:25.090Z,19.48
2023-04-12T07:36:54.622Z,20.50
2023-04-12T07:39:24.017Z,18.73
2023-04-12T07:41:56.880Z,19.27
2023-04-12T07:44:26.119Z,19.88
2023-04-12T07:46:55.474Z,16.88
2023-04-12T07:49:25.009Z,18.13
2023-04-12T07:51:53.982Z,17.35
2023-04-12T07:54:23.639Z,17.65
2023-04-12T07:57:11.044Z,14.98
2023-04-12T07:59:40.391Z,14.32
2023-04-12T08:02:10.092Z,12.77
2023-04-12T08:04:39.212Z,10.02
2023-04-12T08:07:08.476Z,9.88
2023-04-12T08:09:37.767Z,8.70
2023-04-12T08:12:08.098Z,7.88
2023-04-12T08:14:39.719Z,7.65
2023-04-12T08:17:10.432Z,6.05
2023-04-12T08:19:39.682Z,6.63
2023-04-12T08:22:11.300Z,5.78
2023-04-12T08:24:42.299Z,6.05
2023-04-12T08:27:12.729Z,6.07
2023-04-12T08:29:42.300Z,7.75
2023-04-12T08:32:13.897Z,10.93
2023-04-12T08:34:44.867Z,9.68
2023-04-12T08:39:44.497Z,8.13
2023-04-12T08:42:17.774Z,7.65
2023-04-12T08:44:47.660Z,8.13
2023-04-12T08:47:18.800Z,7.30
2023-04-12T08:49:48.436Z,8.30
2023-04-12T08:52:17.965Z,12.15
2023-04-12T08:54:48.725Z,9.23
2023-04-12T08:57:20.276Z,7.78
2023-04-12T08:59:51.890Z,7.80
2023-04-12T09:02:21.410Z,9.32
2023-04-12T09:04:54.868Z,10.18
2023-04-12T09:07:28.767Z,12.13
2023-04-12T09:09:59.609Z,7.85
2023-04-12T09:12:28.856Z,9.45
2023-04-12T09:15:09.781Z,7.63
2023-04-12T09:17:40.141Z,7.60
2023-04-12T09:20:18.409Z,6.38
2023-04-12T09:22:48.736Z,9.18
2023-04-12T09:25:18.329Z,6.70
2023-04-12T09:28:01.986Z,7.22
2023-04-12T09:30:46.285Z,7.90
2023-04-12T09:33:15.530Z,6.15
2023-04-12T09:35:44.881Z,8.90
2023-04-12T09:38:14.647Z,6.55
2023-04-12T09:40:44.248Z,8.15
2023-04-12T09:43:13.431Z,5.82
2023-04-12T09:45:43.074Z,6.40
2023-04-12T09:48:22.347Z,5.78
2023-04-12T09:51:01.282Z,6.15
2023-04-12T09:53:31.796Z,7.53
2023-04-12T09:56:02.707Z,5.60
2023-04-12T09:58:40.056Z,6.55
2023-04-12T10:01:12.518Z,7.53
2023-04-12T10:03:42.054Z,6.90
2023-04-12T10:06:12.069Z,6.82
2023-04-12T10:08:43.042Z,5.43
2023-04-12T10:11:12.744Z,4.65
2023-04-12T10:13:44.189Z,5.93
2023-04-12T10:16:17.697Z,4.97
2023-04-12T10:18:48.623Z,6.50
2023-04-12T10:21:18.594Z,6.32
2023-04-12T10:23:49.170Z,4.57
2023-04-12T10:26:19.502Z,6.72
2023-04-12T10:29:27.810Z,9.30
2023-04-12T10:31:58.687Z,8.02
2023-04-12T10:34:32.693Z,5.43
2023-04-12T10:37:03.912Z,5.75
2023-04-12T10:39:42.551Z,7.10
2023-04-12T10:42:30.552Z,5.10
2023-04-12T10:45:26.792Z,6.82
2023-04-12T10:47:58.033Z,8.50
2023-04-12T10:50:32.550Z,6.13
2023-04-12T10:53:16.371Z,5.05
2023-04-12T10:55:46.667Z,5.22
2023-04-12T10:58:59.431Z,5.95
2023-04-12T11:01:33.283Z,5.93
2023-04-12T11:07:01.320Z,4.18
2023-04-12T11:09:59.047Z,5.07
2023-04-12T11:12:36.630Z,5.05
2023-04-12T11:15:07.176Z,4.20
2023-04-12T11:17:58.718Z,5.88
2023-04-12T11:20:28.743Z,7.00
2023-04-12T11:23:02.518Z,6.50
2023-04-12T11:25:32.784Z,7.10
2023-04-12T11:28:02.741Z,6.95
2023-04-12T11:30:33.792Z,7.63
2023-04-12T11:33:02.889Z,6.05
2023-04-12T11:35:31.953Z,6.22
2023-04-12T11:38:01.831Z,8.27
2023-04-12T11:40:31.243Z,5.82
2023-04-12T11:43:01.189Z,8.60
2023-04-12T11:45:33.000Z,8.10
2023-04-12T11:48:02.647Z,6.32
2023-04-12T11:50:33.193Z,7.05
2023-04-12T11:53:13.322Z,8.55
2023-04-12T11:55:51.946Z,5.60
2023-04-12T11:58:28.159Z,6.18
2023-04-12T12:00:59.640Z,5.18
2023-04-12T12:03:29.433Z,6.75
2023-04-12T12:05:58.990Z,6.57
2023-04-12T12:18:19.516Z,4.50
2023-04-12T12:20:51.648Z,8.43
2023-04-12T12:23:34.795Z,6.40
2023-04-12T12:26:16.973Z,6.68
2023-04-12T12:28:52.894Z,5.00
2023-04-12T12:31:24.954Z,6.03
2023-04-12T12:33:59.174Z,4.30
2023-04-12T12:36:59.070Z,5.32
2023-04-12T12:39:28.838Z,5.65
2023-04-12T12:41:58.011Z,5.40
2023-04-12T12:44:27.374Z,7.93
2023-04-12T12:47:03.401Z,6.32
2023-04-12T12:49:42.873Z,5.38
2023-04-12T12:52:11.847Z,6.10
2023-04-12T12:54:41.948Z,6.00
2023-04-12T12:57:11.863Z,5.43
2023-04-12T12:59:40.821Z,5.88
2023-04-12T13:02:09.870Z,6.88
2023-04-12T13:04:39.258Z,11.52
2023-04-12T13:07:08.397Z,6.28
2023-04-12T13:09:37.377Z,5.95
2023-04-12T13:12:06.499Z,6.55
2023-04-12T13:14:35.460Z,7.05
2023-04-12T13:17:04.350Z,7.07
2023-04-12T13:19:33.810Z,8.93
2023-04-12T13:22:02.700Z,10.32
2023-04-12T13:24:31.812Z,7.80
2023-04-12T13:27:00.841Z,35.40
2023-04-12T13:29:30.372Z,10.65
2023-04-12T13:31:59.639Z,9.27
2023-04-12T13:34:28.697Z,7.28
2023-04-12T13:36:57.965Z,8.40
2023-04-12T13:39:27.292Z,7.95
2023-04-12T13:41:57.227Z,8.27
2023-04-12T13:44:28.515Z,10.73
2023-04-12T13:46:58.084Z,13.15
2023-04-12T13:49:27.237Z,9.65
2023-04-12T13:51:58.511Z,9.75
2023-04-12T13:54:28.188Z,10.15
2023-04-12T13:56:58.730Z,8.95
2023-04-12T13:59:27.909Z,8.70
2023-04-12T14:01:56.905Z,8.50
2023-04-12T14:04:29.701Z,9.63
2023-04-12T14:06:59.781Z,11.00
2023-04-12T14:09:34.208Z,7.82
2023-04-12T14:12:03.910Z,9.27
2023-04-12T14:14:32.852Z,10.65
2023-04-12T14:17:03.194Z,10.57
2023-04-12T14:19:32.764Z,10.88
2023-04-12T14:22:03.454Z,11.00
2023-04-12T14:24:32.890Z,12.95
2023-04-12T14:27:02.076Z,18.35
2023-04-12T14:29:31.108Z,19.65
2023-04-12T14:32:00.151Z,22.02
2023-04-12T14:34:29.259Z,25.67
2023-04-12T14:36:59.036Z,27.40
2023-04-12T14:39:28.941Z,28.38
2023-04-12T14:41:58.556Z,35.70
2023-04-12T14:44:28.557Z,30.80
2023-04-12T14:46:58.700Z,35.53
2023-04-12T14:49:28.514Z,37.92
2023-04-12T14:51:59.670Z,35.97
2023-04-12T14:54:28.657Z,41.95
2023-04-12T14:56:57.871Z,46.72
2023-04-12T14:59:28.426Z,51.50
2023-04-12T15:01:59.699Z,52.55
2023-04-12T15:04:29.807Z,50.85
2023-04-12T15:06:58.760Z,48.97
2023-04-12T15:09:28.550Z,50.65
2023-04-12T15:12:02.249Z,46.58
2023-04-12T15:14:31.710Z,48.22
2023-04-12T15:17:00.790Z,50.72
2023-04-12T15:19:32.562Z,47.53
2023-04-12T15:22:02.177Z,45.78
2023-04-12T15:24:31.995Z,43.42
2023-04-12T15:27:01.635Z,37.08
2023-04-12T15:29:32.613Z,37.85
2023-04-12T15:32:02.233Z,31.25
2023-04-12T15:34:35.186Z,24.05
2023-04-12T15:37:06.226Z,21.00
2023-04-12T15:39:36.772Z,17.52
2023-04-12T15:42:06.361Z,16.45
2023-04-12T15:44:35.247Z,17.70
2023-04-12T15:47:11.467Z,14.98
2023-04-12T15:49:41.288Z,16.08
2023-04-12T15:52:10.307Z,16.27
2023-04-12T15:54:43.926Z,25.15
2023-04-12T15:57:13.618Z,25.88
2023-04-12T15:59:43.153Z,24.55
2023-04-12T16:02:12.253Z,29.33
2023-04-12T16:04:44.506Z,30.95
2023-04-12T16:07:15.589Z,31.65
2023-04-12T16:09:45.339Z,30.60
2023-04-12T16:12:14.243Z,29.85
2023-04-12T16:14:44.142Z,30.05
2023-04-12T16:17:13.940Z,31.05
2023-04-12T16:19:42.902Z,24.77
2023-04-12T16:22:12.741Z,21.92
2023-04-12T16:24:41.980Z,23.08
2023-04-12T16:27:11.955Z,21.63
2023-04-12T16:29:41.429Z,21.50
2023-04-12T16:32:10.642Z,19.25
2023-04-12T16:34:39.633Z,18.17
2023-04-12T16:37:10.152Z,25.45
2023-04-12T16:43:55.148Z,19.48
2023-04-12T16:46:24.555Z,19.33
2023-04-12T16:48:53.815Z,19.35
2023-04-12T16:51:26.084Z,19.70
2023-04-12T16:53:56.770Z,20.05
2023-04-12T16:56:26.988Z,17.87
2023-04-12T16:58:56.494Z,17.83
2023-04-12T17:01:25.933Z,18.75
2023-04-12T17:03:55.909Z,18.58
2023-04-12T17:06:25.323Z,19.08
2023-04-12T17:08:54.592Z,19.33
2023-04-12T17:11:23.910Z,17.88
2023-04-12T17:13:53.991Z,16.45
2023-04-12T17:16:23.341Z,16.85
2023-04-12T17:18:52.975Z,17.00
2023-04-12T17:21:23.487Z,16.30
2023-04-12T17:23:53.233Z,16.80
2023-04-12T17:26:26.062Z,16.23
2023-04-12T17:28:55.953Z,15.15
2023-04-12T17:31:28.130Z,15.60
2023-04-12T17:33:58.714Z,15.70
2023-04-12T17:36:34.819Z,14.52
2023-04-12T17:39:06.125Z,16.45
2023-04-12T17:41:35.665Z,16.67
2023-04-12T17:44:04.757Z,16.50
2023-04-12T17:46:35.624Z,15.35
2023-04-12T17:49:06.617Z,17.50
2023-04-12T17:51:36.395Z,20.20
2023-04-12T17:54:06.019Z,21.25
2023-04-12T17:56:35.159Z,20.42
2023-04-12T17:59:06.936Z,21.17
2023-04-12T18:04:08.357Z,16.40
2023-04-12T18:06:38.337Z,15.23
2023-04-12T18:09:08.062Z,50.45
2023-04-12T18:11:40.895Z,49.80
2023-04-12T18:14:12.190Z,42.88
2023-04-12T18:16:41.788Z,29.67
2023-04-12T18:19:12.446Z,29.98
2023-04-12T18:21:42.042Z,55.17
2023-04-12T18:24:11.322Z,79.97
2023-04-12T18:26:40.548Z,40.97
2023-04-12T18:29:12.768Z,32.33
2023-04-12T18:31:43.498Z,24.65
2023-04-12T18:34:13.142Z,27.63
2023-04-12T18:36:43.565Z,26.40
2023-04-12T18:39:12.954Z,25.13
2023-04-12T18:41:42.042Z,23.90
2023-04-12T18:44:13.032Z,60.13
2023-04-12T18:46:42.499Z,52.22
2023-04-12T18:49:12.740Z,24.48
2023-04-12T18:51:43.989Z,22.15
2023-04-12T18:54:16.068Z,21.92
2023-04-12T18:56:45.585Z,17.90
2023-04-12T18:59:18.425Z,18.88
2023-04-12T19:01:48.198Z,32.30
2023-04-12T19:04:17.607Z,25.17
2023-04-12T19:06:48.545Z,20.10
2023-04-12T19:09:18.080Z,16.42
2023-04-12T19:11:47.459Z,15.90
2023-04-12T19:14:17.416Z,18.50
2023-04-12T19:16:47.116Z,22.23
2023-04-12T19:19:16.644Z,20.27
2023-04-12T19:21:45.864Z,27.38
2023-04-12T19:24:15.501Z,32.50
2023-04-12T19:26:48.360Z,33.28
2023-04-12T19:29:17.779Z,68.53
2023-04-12T19:31:50.661Z,75.80
2023-04-12T19:34:20.635Z,43.40
2023-04-12T19:36:49.932Z,36.40
2023-04-12T19:39:20.102Z,24.95
2023-04-12T19:41:50.306Z,18.63
2023-04-12T19:44:19.563Z,19.80
2023-04-12T19:46:49.541Z,65.38
2023-04-12T19:49:19.654Z,93.25
2023-04-12T19:51:49.545Z,108.03
2023-04-12T19:54:24.837Z,71.10
2023-04-12T19:56:55.407Z,62.90
2023-04-12T19:59:27.722Z,30.48
2023-04-12T20:02:00.378Z,21.05
2023-04-12T20:04:32.065Z,17.88
2023-04-12T20:07:04.495Z,12.85
2023-04-12T20:09:36.125Z,14.95
2023-04-12T20:12:08.377Z,13.25
2023-04-12T20:17:10.110Z,14.85
2023-04-12T20:19:42.081Z,11.80
2023-04-12T20:22:14.128Z,18.00
2023-04-12T20:24:49.039Z,19.90
2023-04-12T20:27:20.236Z,28.25
2023-04-12T20:29:51.735Z,39.00
2023-04-12T20:32:22.555Z,45.15
2023-04-12T20:34:55.103Z,27.02
2023-04-12T20:37:26.703Z,18.00
2023-04-12T20:40:01.976Z,14.27
2023-04-12T20:42:34.284Z,14.00
2023-04-12T20:45:10.310Z,23.55
2023-04-12T20:47:44.110Z,19.30
2023-04-12T20:50:18.663Z,72.57
2023-04-12T20:52:53.545Z,74.32
2023-04-12T20:55:35.540Z,31.38
2023-04-12T20:58:10.907Z,26.23
2023-04-12T21:00:44.168Z,23.55
2023-04-12T21:05:55.032Z,28.38
2023-04-12T21:08:28.687Z,27.48
2023-04-12T21:11:04.342Z,29.85
2023-04-12T21:13:38.248Z,30.20
2023-04-12T21:16:17.855Z,29.27
2023-04-12T21:18:52.717Z,27.67
2023-04-12T21:21:26.536Z,27.45
2023-04-12T21:24:01.140Z,29.50
2023-04-12T21:26:34.714Z,51.90
2023-04-12T21:29:07.816Z,76.07
2023-04-12T21:31:43.961Z,90.03
2023-04-12T21:34:16.367Z,105.03
2023-04-12T21:39:22.549Z,83.20
2023-04-12T21:41:56.306Z,81.80
2023-04-12T21:44:28.900Z,77.50
2023-04-12T21:47:03.813Z,79.90
2023-04-12T21:49:38.744Z,81.75
2023-04-12T21:52:12.340Z,78.72
2023-04-12T21:54:45.762Z,92.95
2023-04-12T21:57:21.029Z,80.47
2023-04-12T21:59:55.410Z,66.10
2023-04-12T22:02:30.310Z,57.67
2023-04-12T22:05:05.039Z,56.90
2023-04-12T22:07:42.715Z,53.70
2023-04-12T22:10:17.361Z,52.75
2023-04-12T22:12:52.467Z,53.22
2023-04-12T22:15:27.374Z,51.67
2023-04-12T22:18:01.941Z,51.88
2023-04-12T22:20:38.192Z,50.78
2023-04-12T22:23:11.538Z,50.83
2023-04-12T22:25:47.317Z,51.70
2023-04-12T22:28:20.524Z,54.53
2023-04-12T22:30:55.721Z,60.90
2023-04-12T22:33:30.491Z,63.97
2023-04-12T22:36:04.852Z,62.45
2023-04-12T22:38:41.791Z,74.78
2023-04-12T22:41:20.477Z,78.35
2023-04-12T22:44:04.624Z,74.40
2023-04-12T22:46:41.580Z,72.60
2023-04-12T22:49:15.922Z,67.93
2023-04-12T22:51:50.121Z,66.15
2023-04-12T22:54:23.582Z,63.80
2023-04-12T22:56:57.946Z,64.72
2023-04-12T22:59:32.358Z,64.13
2023-04-12T23:02:07.731Z,69.88
2023-04-12T23:04:41.235Z,70.15
2023-04-12T23:07:15.460Z,70.80
2023-04-12T23:09:48.884Z,76.80
2023-04-12T23:12:22.488Z,78.95
2023-04-12T23:14:57.836Z,77.00
2023-04-12T23:17:32.476Z,81.40
2023-04-12T23:20:08.229Z,85.97
2023-04-12T23:22:57.896Z,86.88
2023-04-12T23:25:43.046Z,93.30
2023-04-12T23:28:19.344Z,94.18
2023-04-12T23:30:53.279Z,90.15
2023-04-12T23:33:27.801Z,86.30
2023-04-12T23:36:06.120Z,86.60
2023-04-12T23:38:41.659Z,92.30
2023-04-12T23:41:15.875Z,85.40
2023-04-12T23:43:50.527Z,86.07
2023-04-12T23:46:24.560Z,84.13
2023-04-12T23:48:57.285Z,86.55
2023-04-12T23:54:02.157Z,80.60
2023-04-12T23:56:37.738Z,80.50
2023-04-12T23:59:11.209Z,80.45
